Time;durP1;ratioP1;P1;durP2;ratioP2;P2;SDS_P1;SDS_P2;PMS_P1;PMS_P2;Temp;Humidity;BMP_temperature;BMP_pressure;BME280_temperature;BME280_humidity;BME280_pressure;Samples;Min_cycle;Max_cycle;Signal;HPM_P1;HPM_P2
2023/12/04 00:01:45;;;;;;;18.95;6.30;;;6.90;99.90;;;;;;5091232;28;20448;-80
2023/12/04 00:04:10;;;;;;;17.90;5.13;;;7.00;99.90;;;;;;5094507;28;20031;-80
2023/12/04 00:06:36;;;;;;;12.18;5.07;;;7.00;99.90;;;;;;5096715;28;20032;-80
2023/12/04 00:09:02;;;;;;;18.05;5.80;;;6.90;99.90;;;;;;5092204;28;20554;-81
2023/12/04 00:11:27;;;;;;;17.27;6.80;;;6.90;99.90;;;;;;5095959;28;20024;-80
2023/12/04 00:13:53;;;;;;;14.20;5.35;;;6.80;99.90;;;;;;5094404;28;20035;-79
2023/12/04 00:16:18;;;;;;;18.45;5.88;;;6.80;99.90;;;;;;5095853;28;20059;-80
2023/12/04 00:18:44;;;;;;;18.33;5.55;;;6.80;99.90;;;;;;5090202;28;20055;-78
2023/12/04 00:21:10;;;;;;;18.00;6.03;;;6.80;99.90;;;;;;5090981;28;20035;-79
2023/12/04 00:23:35;;;;;;;20.95;7.32;;;6.80;99.90;;;;;;5089088;28;20032;-80
2023/12/04 00:26:02;;;;;;;16.45;5.97;;;6.70;99.90;;;;;;5085678;28;20020;-80
2023/12/04 00:28:28;;;;;;;21.10;5.90;;;6.70;99.90;;;;;;5096416;28;20119;-79
2023/12/04 00:30:54;;;;;;;16.45;6.70;;;6.80;99.90;;;;;;5092400;28;20031;-79
2023/12/04 00:33:20;;;;;;;17.67;6.38;;;6.70;99.90;;;;;;5096502;28;20612;-82
2023/12/04 00:35:46;;;;;;;14.82;6.15;;;6.70;99.90;;;;;;5091201;28;20036;-79
2023/12/04 00:38:11;;;;;;;19.55;5.93;;;6.70;99.90;;;;;;5077089;28;20020;-79
2023/12/04 00:40:37;;;;;;;14.23;5.72;;;6.70;99.90;;;;;;5097407;28;20035;-78
2023/12/04 00:43:02;;;;;;;18.33;6.30;;;6.60;99.90;;;;;;5106771;28;20118;-79
2023/12/04 00:45:28;;;;;;;14.98;6.15;;;6.70;99.90;;;;;;5108296;28;20044;-78
2023/12/04 00:47:54;;;;;;;15.35;5.60;;;6.70;99.90;;;;;;5112632;28;20032;-80
2023/12/04 00:50:19;;;;;;;13.27;5.93;;;6.60;99.90;;;;;;5111072;28;20580;-80
2023/12/04 00:52:45;;;;;;;16.98;5.60;;;6.50;99.90;;;;;;5097660;28;20039;-79
2023/12/04 00:55:11;;;;;;;13.65;5.88;;;6.60;99.90;;;;;;5092605;28;20016;-80
2023/12/04 00:57:36;;;;;;;16.48;6.22;;;6.50;99.90;;;;;;5091329;28;20031;-79
2023/12/04 01:00:03;;;;;;;16.05;5.65;;;6.50;99.90;;;;;;5090230;28;20372;-80
2023/12/04 01:02:28;;;;;;;17.33;6.07;;;6.40;99.90;;;;;;5096144;28;20069;-79
2023/12/04 01:04:54;;;;;;;17.00;5.95;;;6.50;99.90;;;;;;5092486;28;20036;-81
2023/12/04 01:07:20;;;;;;;14.15;4.97;;;6.40;99.90;;;;;;5091366;28;20043;-79
2023/12/04 01:09:45;;;;;;;16.20;5.68;;;6.40;99.90;;;;;;5099031;28;20068;-82
2023/12/04 01:12:11;;;;;;;10.27;4.72;;;6.50;99.90;;;;;;5092208;28;20047;-81
2023/12/04 01:14:40;;;;;;;14.05;5.43;;;6.40;99.90;;;;;;5094764;28;20054;-80
2023/12/04 01:17:06;;;;;;;18.25;4.25;;;6.40;99.90;;;;;;5095083;28;20553;-80
2023/12/04 01:19:32;;;;;;;15.20;5.75;;;6.30;99.90;;;;;;5090390;28;20094;-81
2023/12/04 01:21:57;;;;;;;17.08;4.80;;;6.30;99.90;;;;;;5091317;28;20028;-82
2023/12/04 01:24:23;;;;;;;14.85;5.53;;;6.30;99.90;;;;;;5090770;28;20040;-82
2023/12/04 01:26:49;;;;;;;16.73;5.25;;;6.30;99.90;;;;;;5086904;28;20811;-82
2023/12/04 01:29:14;;;;;;;23.23;6.13;;;6.30;99.90;;;;;;5090819;28;20020;-81
2023/12/04 01:31:40;;;;;;;21.15;5.88;;;6.30;99.90;;;;;;5091777;28;20131;-84
2023/12/04 01:34:05;;;;;;;22.05;6.03;;;6.30;99.90;;;;;;5089084;28;20479;-82
2023/12/04 01:36:31;;;;;;;29.45;6.30;;;6.20;99.90;;;;;;5094724;28;20310;-82
2023/12/04 01:38:57;;;;;;;14.25;5.25;;;6.20;99.90;;;;;;5090363;28;20038;-85
2023/12/04 01:41:22;;;;;;;19.38;5.40;;;6.20;99.90;;;;;;5097536;28;20179;-83
2023/12/04 01:43:48;;;;;;;17.75;5.85;;;6.20;99.90;;;;;;5097443;28;20032;-83
2023/12/04 01:46:17;;;;;;;24.40;6.53;;;6.20;99.90;;;;;;5087670;28;20059;-86
2023/12/04 01:48:45;;;;;;;27.20;6.47;;;6.20;99.90;;;;;;5093314;28;20096;-85
2023/12/04 01:51:11;;;;;;;27.50;7.13;;;6.20;99.90;;;;;;5089896;28;20507;-83
2023/12/04 01:53:38;;;;;;;36.90;6.28;;;6.20;99.90;;;;;;5088840;28;20043;-90
2023/12/04 01:56:05;;;;;;;23.27;6.03;;;6.10;99.90;;;;;;5089342;28;20020;-85
2023/12/04 01:58:31;;;;;;;20.23;6.50;;;6.20;99.90;;;;;;5088506;28;20226;-89
2023/12/04 02:00:57;;;;;;;16.90;6.25;;;6.20;99.90;;;;;;5089715;28;20020;-87
2023/12/04 02:03:23;;;;;;;20.88;5.78;;;6.20;99.90;;;;;;5094034;28;20371;-89
2023/12/04 02:05:51;;;;;;;17.88;6.13;;;6.20;99.90;;;;;;5093004;28;20161;-90
2023/12/04 02:08:37;;;;;;;17.17;6.00;;;6.10;99.90;;;;;;5092221;28;20030;-88
2023/12/04 02:11:03;;;;;;;17.42;5.75;;;6.10;99.90;;;;;;5094664;28;20035;-90
2023/12/04 02:13:29;;;;;;;17.30;5.90;;;6.10;99.90;;;;;;5089894;28;20399;-90
2023/12/04 02:15:56;;;;;;;23.65;6.10;;;6.10;99.90;;;;;;5095594;28;20054;-92
2023/12/04 02:18:22;;;;;;;20.75;6.47;;;6.10;99.90;;;;;;5089769;28;20588;-91
2023/12/04 02:27:00;;;;;;;13.38;5.25;;;6.10;99.90;;;;;;5003706;28;20054;-89
2023/12/04 02:29:32;;;;;;;16.77;5.60;;;6.10;99.90;;;;;;4998708;28;20022;-89
2023/12/04 02:31:59;;;;;;;22.95;5.70;;;6.10;99.90;;;;;;4999237;28;20034;-87
2023/12/04 02:34:25;;;;;;;14.85;4.50;;;6.10;99.90;;;;;;4997301;28;20130;-88
2023/12/04 02:36:52;;;;;;;22.42;6.20;;;6.20;99.90;;;;;;5003305;28;20045;-87
2023/12/04 02:42:42;;;;;;;16.92;5.13;;;6.10;99.90;;;;;;5048501;22;20110;-89
2023/12/04 02:45:08;;;;;;;20.10;4.68;;;6.20;99.90;;;;;;5026492;28;20040;-88
2023/12/04 02:49:16;;;;;;;28.00;5.13;;;6.20;99.90;;;;;;5023221;28;20041;-91
2023/12/04 02:51:27;;;;;;;;;;;;;;;;;;;;;
2023/12/04 04:07:30;;;;;;;;;;;;;;;;;;;;;
2023/12/04 04:10:24;;;;;;;;;;;;;;;;;;;;;
2023/12/04 05:11:31;;;;;;;10.70;3.60;;;6.50;99.90;;;;;;4944632;28;20054;-87
2023/12/04 05:13:57;;;;;;;8.00;3.47;;;6.50;99.90;;;;;;4891686;29;20483;-87
2023/12/04 05:16:22;;;;;;;8.85;3.38;;;6.50;99.90;;;;;;4888035;29;20032;-86
2023/12/04 05:18:48;;;;;;;10.98;3.58;;;6.50;99.90;;;;;;4895141;29;20363;-86
2023/12/04 05:21:14;;;;;;;10.77;3.58;;;6.50;99.90;;;;;;4893187;29;20055;-87
2023/12/04 05:23:39;;;;;;;13.57;3.60;;;6.50;99.90;;;;;;4889724;29;20073;-87
2023/12/04 05:26:06;;;;;;;8.60;4.03;;;6.50;99.90;;;;;;4894437;29;20039;-87
2023/12/04 05:28:31;;;;;;;12.48;3.58;;;6.50;99.90;;;;;;4881729;29;20036;-86
2023/12/04 05:30:57;;;;;;;6.43;3.65;;;6.60;99.90;;;;;;4889265;29;20048;-88
2023/12/04 05:33:23;;;;;;;7.72;3.67;;;6.50;99.90;;;;;;4880894;29;20514;-86
2023/12/04 05:35:51;;;;;;;9.75;3.58;;;6.50;99.90;;;;;;4887657;29;20572;-86
2023/12/04 05:38:16;;;;;;;7.85;3.33;;;6.50;99.90;;;;;;4888176;29;20033;-86
2023/12/04 05:40:42;;;;;;;9.05;4.10;;;6.40;99.90;;;;;;4889118;29;20040;-86
2023/12/04 05:43:08;;;;;;;7.50;3.67;;;6.50;99.90;;;;;;4893118;29;20032;-86
2023/12/04 05:45:33;;;;;;;12.25;3.70;;;6.50;99.90;;;;;;4888558;29;20446;-85
2023/12/04 05:47:59;;;;;;;9.68;3.95;;;6.50;99.90;;;;;;4889509;29;20107;-86
2023/12/04 05:50:24;;;;;;;13.05;3.95;;;6.50;99.90;;;;;;4885900;29;20482;-87
2023/12/04 05:52:51;;;;;;;9.63;4.15;;;6.50;99.90;;;;;;4892157;29;20484;-87
2023/12/04 05:55:16;;;;;;;11.52;3.50;;;6.50;99.90;;;;;;4891089;29;20032;-87
2023/12/04 05:57:44;;;;;;;10.30;3.80;;;6.50;99.90;;;;;;4887556;29;20032;-87
2023/12/04 06:00:12;;;;;;;8.00;3.88;;;6.50;99.90;;;;;;4892789;29;20041;-88
2023/12/04 06:02:39;;;;;;;7.95;3.88;;;6.50;99.90;;;;;;4891771;29;20035;-87
2023/12/04 06:05:05;;;;;;;8.73;3.55;;;6.50;99.90;;;;;;4889334;29;20506;-87
2023/12/04 06:07:31;;;;;;;11.07;4.22;;;6.50;99.90;;;;;;4891672;29;20043;-88
2023/12/04 06:09:57;;;;;;;9.73;4.28;;;6.40;99.90;;;;;;4894113;29;20033;-87
2023/12/04 06:12:23;;;;;;;12.20;4.50;;;6.50;99.90;;;;;;4897807;29;20050;-88
2023/12/04 06:14:48;;;;;;;10.40;4.38;;;6.50;99.90;;;;;;4906816;29;20027;-88
2023/12/04 06:17:14;;;;;;;12.10;4.22;;;6.50;99.90;;;;;;4905533;29;20036;-88
2023/12/04 06:19:40;;;;;;;13.70;4.55;;;6.50;99.90;;;;;;4908672;29;20054;-88
2023/12/04 06:22:05;;;;;;;14.52;4.75;;;6.40;99.90;;;;;;4905675;29;20043;-88
2023/12/04 06:24:31;;;;;;;15.25;4.68;;;6.50;99.90;;;;;;4906476;29;20385;-88
2023/12/04 06:26:58;;;;;;;10.10;4.80;;;6.50;99.90;;;;;;4905402;29;20032;-88
2023/12/04 06:29:24;;;;;;;10.98;4.10;;;6.50;99.90;;;;;;4903201;29;20028;-88
2023/12/04 06:31:50;;;;;;;10.60;4.72;;;6.50;99.90;;;;;;4906856;29;20028;-88
2023/12/04 06:34:16;;;;;;;13.52;4.88;;;6.50;99.90;;;;;;4899042;29;20223;-88
2023/12/04 06:36:41;;;;;;;11.45;5.18;;;6.50;99.90;;;;;;4900275;29;20040;-87
2023/12/04 06:39:12;;;;;;;9.98;5.05;;;6.50;99.90;;;;;;4902203;29;20040;-87
2023/12/04 06:41:39;;;;;;;11.27;5.35;;;6.50;99.90;;;;;;4901008;29;20045;-87
2023/12/04 06:44:05;;;;;;;11.38;5.65;;;6.50;99.90;;;;;;4912693;29;20043;-88
2023/12/04 06:46:36;;;;;;;11.13;5.45;;;6.50;99.90;;;;;;4907093;29;20078;-89
2023/12/04 06:49:04;;;;;;;10.35;5.15;;;6.50;99.90;;;;;;4903155;29;20043;-88
2023/12/04 06:51:30;;;;;;;12.65;4.72;;;6.50;99.90;;;;;;4905331;29;20032;-87
2023/12/04 06:53:55;;;;;;;10.95;5.40;;;6.50;99.90;;;;;;4907151;29;20028;-88
2023/12/04 06:56:21;;;;;;;13.00;5.40;;;6.50;99.90;;;;;;4903355;29;20036;-88
2023/12/04 06:58:46;;;;;;;9.00;4.18;;;6.50;99.90;;;;;;4910663;29;20497;-88
2023/12/04 07:01:12;;;;;;;15.30;5.22;;;6.60;99.90;;;;;;4902819;29;20036;-88
2023/12/04 07:03:38;;;;;;;13.98;5.70;;;6.60;99.90;;;;;;4900549;29;20021;-87
2023/12/04 07:06:04;;;;;;;15.75;6.20;;;6.60;99.90;;;;;;4904049;29;20047;-87
2023/12/04 07:08:29;;;;;;;12.30;6.00;;;6.60;99.90;;;;;;4903436;29;20163;-86
2023/12/04 07:10:55;;;;;;;12.10;5.28;;;6.60;99.90;;;;;;4903913;29;20033;-88
2023/12/04 07:13:21;;;;;;;12.38;5.63;;;6.60;99.90;;;;;;4910353;29;20559;-94
2023/12/04 07:15:47;;;;;;;12.65;6.55;;;6.60;99.90;;;;;;4916704;29;20171;-91
2023/12/04 07:18:12;;;;;;;10.95;5.80;;;6.60;99.90;;;;;;4917823;29;20032;-87
2023/12/04 07:20:38;;;;;;;12.43;5.75;;;6.60;99.90;;;;;;4907546;29;20043;-89
2023/12/04 07:23:03;;;;;;;12.20;5.35;;;6.60;99.90;;;;;;4913233;29;20028;-88
2023/12/04 07:25:29;;;;;;;12.32;5.88;;;6.70;99.90;;;;;;4914528;29;20551;-89
2023/12/04 07:27:55;;;;;;;11.98;5.63;;;6.70;99.90;;;;;;4909704;29;20036;-89
2023/12/04 07:30:20;;;;;;;16.00;6.82;;;6.70;99.90;;;;;;4910806;29;21106;-90
2023/12/04 07:32:46;;;;;;;11.45;6.07;;;6.70;99.90;;;;;;4905212;29;20029;-89
2023/12/04 07:35:12;;;;;;;14.77;6.47;;;6.70;99.90;;;;;;4924487;29;20024;-89
2023/12/04 07:37:38;;;;;;;12.48;6.05;;;6.70;99.90;;;;;;4904665;29;20024;-89
2023/12/04 07:40:05;;;;;;;11.23;5.65;;;6.70;99.90;;;;;;4918500;29;20044;-91
2023/12/04 07:42:31;;;;;;;11.13;6.15;;;6.80;99.90;;;;;;4907520;29;20528;-87
2023/12/04 07:44:57;;;;;;;12.27;5.88;;;6.70;99.90;;;;;;4900416;29;20450;-88
2023/12/04 07:47:23;;;;;;;12.55;6.13;;;6.80;99.90;;;;;;4898304;29;20380;-86
2023/12/04 07:49:49;;;;;;;9.88;5.70;;;6.80;99.90;;;;;;4892835;29;20044;-92
2023/12/04 07:52:14;;;;;;;9.82;5.57;;;6.80;99.90;;;;;;4901905;29;20019;-92
2023/12/04 07:54:40;;;;;;;12.27;5.90;;;6.70;99.90;;;;;;4912466;29;20111;-92
2023/12/04 07:57:06;;;;;;;10.70;5.75;;;6.80;99.90;;;;;;4910563;29;20554;-92
2023/12/04 07:59:31;;;;;;;15.32;5.68;;;6.90;99.90;;;;;;4907308;29;20083;-92
2023/12/04 08:01:57;;;;;;;8.27;4.85;;;6.90;99.90;;;;;;4903790;29;20017;-90
2023/12/04 08:04:23;;;;;;;9.00;4.85;;;6.90;99.90;;;;;;4904300;29;20492;-89
2023/12/04 08:06:49;;;;;;;7.30;4.78;;;6.90;99.90;;;;;;4897719;29;20562;-88
2023/12/04 08:09:16;;;;;;;8.45;4.75;;;6.90;99.90;;;;;;4902665;29;20496;-83
2023/12/04 08:11:42;;;;;;;10.25;4.90;;;6.90;99.90;;;;;;4899632;29;20098;-89
2023/12/04 08:14:08;;;;;;;8.68;5.18;;;7.00;99.90;;;;;;4885927;29;20467;-90
2023/12/04 08:16:34;;;;;;;10.80;4.85;;;6.90;99.90;;;;;;4884531;29;20051;-89
2023/12/04 08:18:59;;;;;;;10.80;5.57;;;6.90;99.90;;;;;;4898963;29;20089;-90
2023/12/04 08:21:25;;;;;;;11.05;4.90;;;6.90;99.90;;;;;;4899845;29;20064;-91
2023/12/04 08:23:50;;;;;;;7.10;5.30;;;6.90;99.90;;;;;;4893584;29;20039;-87
2023/12/04 08:26:24;;;;;;;9.93;5.25;;;6.90;99.90;;;;;;4878979;29;20040;-83
2023/12/04 08:28:51;;;;;;;10.90;5.78;;;6.80;99.90;;;;;;4872703;29;20122;-84
2023/12/04 08:31:17;;;;;;;9.65;5.47;;;6.90;99.90;;;;;;4890994;29;20028;-84
2023/12/04 08:33:42;;;;;;;11.48;5.70;;;7.00;99.90;;;;;;4893215;29;20051;-84
2023/12/04 08:36:09;;;;;;;19.20;6.93;;;7.00;99.90;;;;;;4896604;29;20036;-88
2023/12/04 08:38:36;;;;;;;16.25;6.32;;;7.00;99.90;;;;;;4893348;29;20090;-82
2023/12/04 08:41:02;;;;;;;12.40;6.35;;;6.90;99.90;;;;;;4889998;29;20035;-82
2023/12/04 08:43:28;;;;;;;11.60;6.43;;;6.90;99.90;;;;;;4889669;29;20036;-87
2023/12/04 08:45:54;;;;;;;15.40;6.22;;;7.00;99.90;;;;;;4888015;29;20020;-88
2023/12/04 08:48:20;;;;;;;17.15;7.38;;;7.00;99.90;;;;;;4886389;29;20032;-86
2023/12/04 08:50:45;;;;;;;16.33;7.20;;;7.00;99.90;;;;;;4887295;29;20154;-82
2023/12/04 08:53:12;;;;;;;14.65;7.32;;;7.10;99.90;;;;;;4892841;29;21108;-81
2023/12/04 08:55:37;;;;;;;15.32;8.23;;;7.10;99.90;;;;;;4892429;29;20130;-85
2023/12/04 08:58:05;;;;;;;17.92;7.53;;;7.10;99.90;;;;;;4898099;29;20024;-86
2023/12/04 09:00:37;;;;;;;16.58;7.30;;;7.10;99.90;;;;;;4897220;29;20036;-86
2023/12/04 09:03:03;;;;;;;10.70;7.47;;;7.10;99.90;;;;;;4892788;29;20028;-84
2023/12/04 09:05:28;;;;;;;17.75;7.75;;;7.10;99.90;;;;;;4891943;29;20039;-88
2023/12/04 09:07:54;;;;;;;15.23;7.95;;;7.10;99.90;;;;;;4884580;29;20028;-83
2023/12/04 09:10:19;;;;;;;15.35;7.60;;;7.10;99.90;;;;;;4902300;29;20032;-87
2023/12/04 09:12:45;;;;;;;20.25;9.20;;;7.10;99.90;;;;;;4901724;29;20048;-87
2023/12/04 09:15:11;;;;;;;19.15;8.13;;;7.10;99.90;;;;;;4899086;29;20487;-86
2023/12/04 09:17:37;;;;;;;18.88;8.13;;;7.10;99.90;;;;;;4892203;29;20012;-89
2023/12/04 09:20:05;;;;;;;16.55;7.72;;;7.10;99.90;;;;;;4890566;29;20110;-86
2023/12/04 09:22:31;;;;;;;23.08;8.88;;;7.20;99.90;;;;;;4888553;29;20401;-84
2023/12/04 09:24:57;;;;;;;16.25;7.88;;;7.20;99.90;;;;;;4895109;29;20036;-87
2023/12/04 09:27:23;;;;;;;21.00;8.15;;;7.20;99.90;;;;;;4894213;29;21032;-86
2023/12/04 09:29:48;;;;;;;22.42;8.70;;;7.30;99.90;;;;;;4897331;29;20031;-82
2023/12/04 09:32:14;;;;;;;21.92;8.13;;;7.30;99.90;;;;;;4893105;29;20019;-84
2023/12/04 09:34:40;;;;;;;20.50;8.75;;;7.30;99.90;;;;;;4895468;29;20016;-84
2023/12/04 09:37:05;;;;;;;16.35;8.18;;;7.30;99.90;;;;;;4896860;29;20031;-83
2023/12/04 09:39:31;;;;;;;19.80;8.07;;;7.30;99.90;;;;;;4894943;29;20346;-82
2023/12/04 09:41:58;;;;;;;20.17;7.90;;;7.30;99.90;;;;;;4897497;29;20839;-80
2023/12/04 09:44:26;;;;;;;22.15;8.60;;;7.40;99.90;;;;;;4904145;29;20036;-83
2023/12/04 09:46:52;;;;;;;22.77;8.90;;;7.40;99.90;;;;;;4926027;29;20024;-86
2023/12/04 09:49:21;;;;;;;25.88;9.35;;;7.40;99.90;;;;;;4924668;29;20083;-79
2023/12/04 09:51:47;;;;;;;23.38;9.10;;;7.50;99.90;;;;;;4922444;29;20031;-82
2023/12/04 09:54:16;;;;;;;14.80;7.15;;;7.50;99.90;;;;;;4913346;29;20047;-82
2023/12/04 09:56:43;;;;;;;16.45;7.50;;;7.60;99.90;;;;;;4899507;29;20040;-84
2023/12/04 09:59:12;;;;;;;18.48;7.82;;;7.50;99.90;;;;;;4899149;29;20055;-85
2023/12/04 10:01:38;;;;;;;13.00;7.13;;;7.50;99.90;;;;;;4897981;29;20055;-84
2023/12/04 10:04:05;;;;;;;15.93;7.93;;;7.50;99.90;;;;;;4898584;29;20055;-86
2023/12/04 10:06:31;;;;;;;17.05;8.55;;;7.50;99.90;;;;;;4900617;29;20664;-85
2023/12/04 10:08:58;;;;;;;17.38;8.52;;;7.50;99.90;;;;;;4895257;29;20666;-83
2023/12/04 10:11:24;;;;;;;22.20;7.90;;;7.60;99.90;;;;;;4900695;29;20404;-85
2023/12/04 10:13:51;;;;;;;18.83;8.50;;;7.60;99.90;;;;;;4899063;29;20052;-85
2023/12/04 10:16:35;;;;;;;18.30;7.68;;;7.70;99.90;;;;;;4900704;29;20028;-86
2023/12/04 10:19:19;;;;;;;19.17;7.40;;;7.70;99.90;;;;;;4904027;29;20146;-81
2023/12/04 10:21:47;;;;;;;18.30;6.68;;;7.70;99.90;;;;;;4890195;29;20036;-83
2023/12/04 10:24:26;;;;;;;16.58;7.25;;;7.60;99.90;;;;;;4886577;29;20043;-80
2023/12/04 10:26:52;;;;;;;21.85;6.88;;;7.60;99.90;;;;;;4898552;29;20047;-88
2023/12/04 10:29:18;;;;;;;16.85;6.90;;;7.50;99.90;;;;;;4892520;29;20028;-86
2023/12/04 10:31:43;;;;;;;15.63;6.07;;;7.50;99.90;;;;;;4892341;29;20597;-83
2023/12/04 10:34:10;;;;;;;16.15;6.65;;;7.50;99.90;;;;;;4897623;29;20043;-81
2023/12/04 10:36:37;;;;;;;15.10;7.68;;;7.50;99.90;;;;;;4895453;29;20078;-88
2023/12/04 10:39:04;;;;;;;13.55;7.57;;;7.60;99.90;;;;;;4895775;29;20147;-85
2023/12/04 10:41:31;;;;;;;12.07;6.07;;;7.60;99.90;;;;;;4894496;29;20119;-83
2023/12/04 10:43:57;;;;;;;15.10;5.53;;;7.60;99.90;;;;;;4895427;29;20364;-84
2023/12/04 10:46:25;;;;;;;10.02;5.38;;;7.60;99.90;;;;;;4898731;29;20024;-82
2023/12/04 10:48:51;;;;;;;14.80;6.15;;;7.50;99.90;;;;;;4900445;29;20036;-82
2023/12/04 10:51:17;;;;;;;8.82;5.13;;;7.50;99.90;;;;;;4898266;29;20048;-88
2023/12/04 10:53:44;;;;;;;11.52;6.00;;;7.60;99.90;;;;;;4905828;29;20186;-88
2023/12/04 10:56:17;;;;;;;10.68;6.30;;;7.50;99.90;;;;;;4902626;29;20028;-87
2023/12/04 10:58:45;;;;;;;15.38;6.43;;;7.50;99.90;;;;;;4906294;29;20028;-88
2023/12/04 11:01:15;;;;;;;21.83;6.63;;;7.50;99.90;;;;;;4900785;29;20110;-91
2023/12/04 11:03:47;;;;;;;15.05;6.35;;;7.50;99.90;;;;;;4900562;29;20048;-84
2023/12/04 11:06:16;;;;;;;13.93;7.45;;;7.50;99.90;;;;;;4896981;29;20377;-87
2023/12/04 11:08:43;;;;;;;15.77;6.65;;;7.60;99.90;;;;;;4898797;29;20047;-87
2023/12/04 11:11:14;;;;;;;14.50;7.68;;;7.60;99.90;;;;;;4895431;29;20040;-88
2023/12/04 11:13:41;;;;;;;12.40;6.47;;;7.70;99.90;;;;;;4878263;29;20044;-87
2023/12/04 11:16:35;;;;;;;14.07;5.97;;;7.80;99.90;;;;;;4878019;29;20613;-85
2023/12/04 11:19:13;;;;;;;16.10;6.63;;;7.80;99.90;;;;;;4877566;29;20088;-86
2023/12/04 11:21:40;;;;;;;16.40;6.93;;;7.80;99.90;;;;;;4877533;29;20102;-90
2023/12/04 11:24:07;;;;;;;11.65;5.60;;;7.80;99.90;;;;;;4885286;29;20164;-90
2023/12/04 11:26:33;;;;;;;8.63;4.82;;;7.90;99.90;;;;;;4882088;29;20048;-85
2023/12/04 11:29:01;;;;;;;10.38;5.72;;;7.90;99.90;;;;;;4883263;29;20084;-87
2023/12/04 11:31:27;;;;;;;13.98;5.80;;;7.80;99.90;;;;;;4880753;29;20033;-92
2023/12/04 11:33:53;;;;;;;9.88;5.72;;;7.90;99.90;;;;;;4881133;29;20394;-88
2023/12/04 11:36:19;;;;;;;13.40;5.80;;;7.90;99.90;;;;;;4874006;29;20120;-85
2023/12/04 11:38:46;;;;;;;11.70;4.80;;;7.90;99.90;;;;;;4876459;29;21026;-87
2023/12/04 11:41:21;;;;;;;10.38;4.90;;;7.90;99.90;;;;;;4880636;29;20225;-84
2023/12/04 11:43:47;;;;;;;;;;;7.90;99.90;;;;;;4877159;29;20350;-87
2023/12/04 11:46:22;;;;;;;10.40;5.00;;;7.90;99.90;;;;;;4877979;29;19911;-89
2023/12/04 11:48:49;;;;;;;12.93;4.90;;;7.80;99.90;;;;;;4881039;29;20381;-84
2023/12/04 11:51:35;;;;;;;9.73;4.65;;;7.80;99.90;;;;;;4877639;29;20033;-83
2023/12/04 11:54:04;;;;;;;7.88;4.70;;;7.90;99.90;;;;;;4870007;29;20048;-87
2023/12/04 11:56:30;;;;;;;9.68;4.60;;;7.90;99.90;;;;;;4876099;29;20024;-83
2023/12/04 11:59:03;;;;;;;12.20;4.82;;;8.00;99.90;;;;;;4892722;29;20068;-85
2023/12/04 12:01:34;;;;;;;14.32;5.28;;;7.90;99.90;;;;;;4893517;29;20088;-83
2023/12/04 12:04:00;;;;;;;10.57;4.68;;;7.90;99.90;;;;;;4903192;29;20132;-80
2023/12/04 12:06:27;;;;;;;9.82;4.65;;;8.00;99.90;;;;;;4902299;29;20123;-81
2023/12/04 12:08:54;;;;;;;10.23;4.68;;;8.00;99.90;;;;;;4904320;29;20263;-81
2023/12/04 12:11:20;;;;;;;7.72;4.30;;;8.00;99.90;;;;;;4881954;29;20185;-88
2023/12/04 12:13:49;;;;;;;10.80;4.10;;;8.10;99.90;;;;;;4895597;29;20207;-85
2023/12/04 12:16:18;;;;;;;7.05;3.80;;;8.10;99.90;;;;;;4903681;29;20393;-85
2023/12/04 12:18:44;;;;;;;9.55;4.07;;;7.90;99.90;;;;;;4898848;29;20123;-85
2023/12/04 12:21:15;;;;;;;9.50;4.22;;;8.00;99.90;;;;;;4891518;29;20063;-90
2023/12/04 12:23:41;;;;;;;11.00;4.00;;;8.10;99.90;;;;;;4899357;29;20043;-86
2023/12/04 12:26:08;;;;;;;10.52;4.63;;;8.20;99.90;;;;;;4898292;29;20044;-82
2023/12/04 12:28:35;;;;;;;12.05;4.65;;;8.20;99.90;;;;;;4897471;29;20217;-80
2023/12/04 12:31:03;;;;;;;8.43;4.15;;;8.20;99.90;;;;;;4887802;29;20020;-78
2023/12/04 12:33:29;;;;;;;11.52;4.40;;;8.20;99.90;;;;;;4892185;29;20035;-78
2023/12/04 12:35:55;;;;;;;8.75;4.40;;;8.30;99.90;;;;;;4901890;29;20024;-79
2023/12/04 12:38:21;;;;;;;15.65;4.80;;;8.50;99.90;;;;;;4890639;29;20660;-79
2023/12/04 12:40:47;;;;;;;13.45;4.43;;;8.50;99.90;;;;;;4877571;29;20036;-79
2023/12/04 12:43:13;;;;;;;12.90;4.07;;;8.50;99.90;;;;;;4889927;29;20110;-79
2023/12/04 12:45:42;;;;;;;7.30;4.32;;;8.40;99.90;;;;;;4894554;29;20484;-82
2023/12/04 12:48:16;;;;;;;10.02;4.40;;;8.40;99.90;;;;;;4900769;29;20120;-84
2023/12/04 12:50:43;;;;;;;14.27;3.90;;;8.50;99.90;;;;;;4895039;29;20146;-83
2023/12/04 12:53:13;;;;;;;8.73;3.60;;;8.50;99.90;;;;;;4908840;29;20059;-82
2023/12/04 12:55:42;;;;;;;7.18;3.72;;;8.40;99.90;;;;;;4893450;29;20127;-84
2023/12/04 12:58:10;;;;;;;9.30;4.13;;;8.30;99.90;;;;;;4890946;29;20527;-80
2023/12/04 13:00:36;;;;;;;9.88;4.03;;;8.30;99.90;;;;;;4887684;29;20062;-81
2023/12/04 13:03:02;;;;;;;11.73;3.70;;;8.30;99.90;;;;;;4887796;29;20111;-82
2023/12/04 13:05:28;;;;;;;6.30;3.60;;;8.40;99.90;;;;;;4892549;29;20028;-84
2023/12/04 13:07:55;;;;;;;6.03;3.05;;;8.40;99.90;;;;;;4858470;29;20896;-82
2023/12/04 13:10:24;;;;;;;6.35;3.20;;;8.20;99.90;;;;;;4847870;29;20387;-85
2023/12/04 13:12:53;;;;;;;5.10;3.38;;;8.30;99.90;;;;;;4851662;29;20205;-90
2023/12/04 13:15:19;;;;;;;9.43;3.58;;;8.20;99.90;;;;;;4853224;29;20059;-81
2023/12/04 13:17:44;;;;;;;9.20;3.53;;;8.20;99.90;;;;;;4855315;29;20044;-87
2023/12/04 13:20:13;;;;;;;7.13;3.47;;;8.30;99.90;;;;;;4862653;29;20036;-84
2023/12/04 13:22:41;;;;;;;7.03;3.35;;;8.20;99.90;;;;;;4895898;29;20246;-84
2023/12/04 13:25:09;;;;;;;4.45;2.70;;;8.30;99.90;;;;;;4894548;29;20032;-82
2023/12/04 13:27:38;;;;;;;7.32;3.10;;;8.30;99.90;;;;;;4889256;29;20532;-85
2023/12/04 13:30:05;;;;;;;7.25;3.08;;;8.40;99.90;;;;;;4894954;29;20459;-88
2023/12/04 13:32:33;;;;;;;7.28;3.15;;;8.30;99.90;;;;;;4898772;29;20547;-84
2023/12/04 13:34:59;;;;;;;7.20;3.28;;;8.20;99.90;;;;;;4898640;28;20122;-82
2023/12/04 13:37:28;;;;;;;7.47;2.90;;;8.30;99.90;;;;;;4897847;29;20523;-91
2023/12/04 13:39:58;;;;;;;7.00;3.10;;;8.40;99.90;;;;;;4896243;29;20032;-92
2023/12/04 13:44:35;;;;;;;6.30;3.35;;;8.50;99.90;;;;;;4899675;29;20249;-84
2023/12/04 13:45:12;;;;;;;8.43;3.30;;;8.60;99.90;;;;;;4894835;29;20021;-88
2023/12/04 13:47:38;;;;;;;9.55;3.40;;;8.50;99.90;;;;;;4899136;29;20036;-88
2023/12/04 13:50:08;;;;;;;9.88;3.70;;;8.50;99.90;;;;;;4891588;29;20036;-84
2023/12/04 13:52:38;;;;;;;6.20;3.67;;;8.50;99.90;;;;;;4892234;29;21717;-88
2023/12/04 13:55:14;;;;;;;6.90;3.67;;;8.60;99.90;;;;;;4896698;29;20032;-86
2023/12/04 13:58:45;;;;;;;6.95;3.88;;;8.60;99.90;;;;;;4894415;29;20194;-83
2023/12/04 14:00:27;;;;;;;9.13;3.95;;;8.60;99.90;;;;;;4898660;29;20116;-85
2023/12/04 14:02:53;;;;;;;7.40;3.33;;;8.60;99.90;;;;;;4905135;29;20198;-84
2023/12/04 14:05:21;;;;;;;9.73;4.53;;;8.50;99.90;;;;;;4921137;29;20032;-83
2023/12/04 14:07:48;;;;;;;6.13;3.70;;;8.50;99.90;;;;;;4922604;29;20040;-85
2023/12/04 14:10:14;;;;;;;6.57;3.65;;;8.50;99.90;;;;;;4926353;29;20071;-85
2023/12/04 14:12:40;;;;;;;7.18;4.00;;;8.60;99.90;;;;;;4909193;29;20503;-83
2023/12/04 14:15:06;;;;;;;9.95;4.00;;;8.70;99.90;;;;;;4898571;29;20032;-85
2023/12/04 14:17:33;;;;;;;6.82;4.10;;;8.80;99.90;;;;;;4895964;29;20029;-84
2023/12/04 14:19:59;;;;;;;6.55;3.75;;;8.90;99.90;;;;;;4915198;29;20220;-88
2023/12/04 14:22:25;;;;;;;6.32;3.95;;;8.80;99.90;;;;;;4905688;29;20381;-81
2023/12/04 14:24:51;;;;;;;7.05;3.25;;;8.80;99.90;;;;;;4901906;29;20292;-86
2023/12/04 14:27:18;;;;;;;5.82;3.47;;;8.70;99.90;;;;;;4894597;29;20031;-86
2023/12/04 14:29:44;;;;;;;7.72;3.80;;;8.60;99.90;;;;;;4895735;29;20027;-87
2023/12/04 14:32:10;;;;;;;6.63;3.42;;;8.70;99.90;;;;;;4902679;29;20699;-88
2023/12/04 14:34:35;;;;;;;4.68;3.60;;;8.80;99.90;;;;;;4906321;29;20080;-86
2023/12/04 14:37:01;;;;;;;6.88;3.60;;;8.80;99.90;;;;;;4902868;29;20405;-91
2023/12/04 14:39:27;;;;;;;8.23;3.40;;;8.90;99.90;;;;;;4901103;29;20032;-84
2023/12/04 14:41:52;;;;;;;5.13;3.45;;;8.80;99.90;;;;;;4895021;29;20857;-86
2023/12/04 14:44:18;;;;;;;6.50;2.55;;;8.80;99.90;;;;;;4901060;29;20039;-86
2023/12/04 14:46:45;;;;;;;8.85;3.40;;;8.70;99.90;;;;;;4897781;29;20036;-89
2023/12/04 14:49:11;;;;;;;4.93;3.55;;;8.60;99.90;;;;;;4901126;29;20020;-91
2023/12/04 14:51:36;;;;;;;10.18;3.33;;;8.70;99.90;;;;;;4903688;29;20393;-90
2023/12/04 14:57:27;;;;;;;4.50;3.10;;;8.60;99.90;;;;;;4898609;29;20043;-85
2023/12/04 14:58:36;;;;;;;5.70;3.50;;;8.70;99.90;;;;;;4888429;29;20518;-85
2023/12/04 15:09:35;;;;;;;5.57;3.67;;;8.60;99.90;;;;;;4892136;29;20266;-89
2023/12/04 15:12:08;;;;;;;7.80;3.80;;;8.60;99.90;;;;;;4893844;29;20462;-87
2023/12/04 15:15:49;;;;;;;7.78;3.35;;;8.60;99.90;;;;;;4897896;29;20534;-90
2023/12/04 15:16:47;;;;;;;6.35;3.60;;;8.70;99.90;;;;;;4874620;29;20200;-90
2023/12/04 15:21:21;;;;;;;8.05;3.83;;;8.50;99.90;;;;;;4889815;29;20656;-90
2023/12/04 15:23:48;;;;;;;7.03;3.30;;;8.60;99.90;;;;;;4878137;29;20543;-92
2023/12/04 15:26:15;;;;;;;5.28;3.60;;;8.50;99.90;;;;;;4863904;29;20069;-89
2023/12/04 15:28:41;;;;;;;13.85;5.70;;;8.40;99.90;;;;;;4853163;29;20474;-88